sensor_id;sensor_type;location;lat;lon;timestamp;pressure;altitude;pressure_sealevel;temperature;humidity
69980;BME280;57318;56.232;43.944;2023-01-27T00:00:50;99358.16;;;-5.77;87.00
69980;BME280;57318;56.232;43.944;2023-01-27T00:03:16;99346.97;;;-5.78;87.00
69980;BME280;57318;56.232;43.944;2023-01-27T00:05:43;99353.84;;;-5.77;87.13
69980;BME280;57318;56.232;43.944;2023-01-27T00:08:08;99343.47;;;-5.77;87.05
69980;BME280;57318;56.232;43.944;2023-01-27T00:10:34;99341.72;;;-5.73;86.93
69980;BME280;57318;56.232;43.944;2023-01-27T00:13:00;99340.00;;;-5.74;86.96
69980;BME280;57318;56.232;43.944;2023-01-27T00:15:44;99335.66;;;-5.72;87.04
69980;BME280;57318;56.232;43.944;2023-01-27T00:18:10;99331.31;;;-5.70;86.81
69980;BME280;57318;56.232;43.944;2023-01-27T00:20:36;99328.69;;;-5.67;86.80
69980;BME280;57318;56.232;43.944;2023-01-27T00:23:23;99337.31;;;-5.68;86.68
69980;BME280;57318;56.232;43.944;2023-01-27T00:26:10;99322.63;;;-5.68;86.60
69980;BME280;57318;56.232;43.944;2023-01-27T00:28:37;99329.59;;;-5.71;86.64
69980;BME280;57318;56.232;43.944;2023-01-27T00:31:04;99327.84;;;-5.69;86.87
69980;BME280;57318;56.232;43.944;2023-01-27T00:33:30;99312.34;;;-5.71;86.44
69980;BME280;57318;56.232;43.944;2023-01-27T00:36:01;99324.41;;;-5.70;86.28
69980;BME280;57318;56.232;43.944;2023-01-27T00:38:28;99324.44;;;-5.71;86.41
69980;BME280;57318;56.232;43.944;2023-01-27T00:40:55;99321.78;;;-5.68;86.54
69980;BME280;57318;56.232;43.944;2023-01-27T00:43:39;99318.38;;;-5.70;86.09
69980;BME280;57318;56.232;43.944;2023-01-27T00:46:05;99311.44;;;-5.68;85.96
69980;BME280;57318;56.232;43.944;2023-01-27T00:48:31;99316.63;;;-5.68;85.68
69980;BME280;57318;56.232;43.944;2023-01-27T00:50:57;99312.34;;;-5.71;85.22
69980;BME280;57318;56.232;43.944;2023-01-27T00:53:23;99295.09;;;-5.70;85.57
69980;BME280;57318;56.232;43.944;2023-01-27T00:55:48;99314.91;;;-5.69;85.53
69980;BME280;57318;56.232;43.944;2023-01-27T00:58:14;99304.53;;;-5.69;85.34
69980;BME280;57318;56.232;43.944;2023-01-27T01:00:40;99300.25;;;-5.69;85.08
69980;BME280;57318;56.232;43.944;2023-01-27T01:03:06;99305.41;;;-5.67;85.43
69980;BME280;57318;56.232;43.944;2023-01-27T01:05:31;99301.91;;;-5.66;85.05
69980;BME280;57318;56.232;43.944;2023-01-27T01:07:57;99314.03;;;-5.68;84.84
69980;BME280;57318;56.232;43.944;2023-01-27T01:10:23;99295.94;;;-5.70;84.98
69980;BME280;57318;56.232;43.944;2023-01-27T01:12:48;99315.75;;;-5.67;85.01
69980;BME280;57318;56.232;43.944;2023-01-27T01:15:14;99318.34;;;-5.69;84.58
69980;BME280;57318;56.232;43.944;2023-01-27T01:17:40;99319.19;;;-5.68;84.96
69980;BME280;57318;56.232;43.944;2023-01-27T01:20:07;99317.47;;;-5.68;85.19
69980;BME280;57318;56.232;43.944;2023-01-27T01:22:34;99313.16;;;-5.67;84.97
69980;BME280;57318;56.232;43.944;2023-01-27T01:24:59;99312.25;;;-5.66;85.27
69980;BME280;57318;56.232;43.944;2023-01-27T01:27:25;99308.81;;;-5.65;85.36
69980;BME280;57318;56.232;43.944;2023-01-27T01:29:51;99299.34;;;-5.68;85.15
69980;BME280;57318;56.232;43.944;2023-01-27T01:32:17;99317.38;;;-5.63;85.28
69980;BME280;57318;56.232;43.944;2023-01-27T01:34:42;99319.13;;;-5.64;85.00
69980;BME280;57318;56.232;43.944;2023-01-27T01:37:08;99301.91;;;-5.66;85.22
69980;BME280;57318;56.232;43.944;2023-01-27T01:39:34;99305.41;;;-5.69;85.23
69980;BME280;57318;56.232;43.944;2023-01-27T01:41:59;99311.47;;;-5.71;85.10
69980;BME280;57318;56.232;43.944;2023-01-27T01:44:27;99308.91;;;-5.71;85.31
69980;BME280;57318;56.232;43.944;2023-01-27T01:46:54;99313.19;;;-5.69;85.31
69980;BME280;57318;56.232;43.944;2023-01-27T01:49:24;99311.47;;;-5.70;85.27
69980;BME280;57318;56.232;43.944;2023-01-27T01:51:57;99311.44;;;-5.68;85.60
69980;BME280;57318;56.232;43.944;2023-01-27T01:56:56;99310.59;;;-5.69;85.73
69980;BME280;57318;56.232;43.944;2023-01-27T01:59:26;99309.75;;;-5.71;86.07
69980;BME280;57318;56.232;43.944;2023-01-27T02:01:55;99307.19;;;-5.72;86.11
69980;BME280;57318;56.232;43.944;2023-01-27T02:04:25;99302.84;;;-5.70;85.96
69980;BME280;57318;56.232;43.944;2023-01-27T02:07:44;99317.53;;;-5.72;85.97
69980;BME280;57318;56.232;43.944;2023-01-27T02:09:42;99309.75;;;-5.72;86.33
69980;BME280;57318;56.232;43.944;2023-01-27T02:12:08;99307.09;;;-5.68;86.47
69980;BME280;57318;56.232;43.944;2023-01-27T02:14:34;99315.75;;;-5.67;86.55
69980;BME280;57318;56.232;43.944;2023-01-27T02:17:19;99294.22;;;-5.71;86.19
69980;BME280;57318;56.232;43.944;2023-01-27T02:22:32;99296.88;;;-5.75;86.29
69980;BME280;57318;56.232;43.944;2023-01-27T02:25:08;99299.44;;;-5.74;86.78
69980;BME280;57318;56.232;43.944;2023-01-27T02:27:36;99299.41;;;-5.72;86.56
69980;BME280;57318;56.232;43.944;2023-01-27T02:30:01;99311.47;;;-5.71;86.50
69980;BME280;57318;56.232;43.944;2023-01-27T02:32:28;99297.66;;;-5.69;86.32
69980;BME280;57318;56.232;43.944;2023-01-27T02:34:55;99295.13;;;-5.72;86.66
69980;BME280;57318;56.232;43.944;2023-01-27T02:37:22;99303.69;;;-5.70;86.80
69980;BME280;57318;56.232;43.944;2023-01-27T02:39:49;99289.94;;;-5.72;86.62
69980;BME280;57318;56.232;43.944;2023-01-27T02:42:17;99290.75;;;-5.70;87.01
69980;BME280;57318;56.232;43.944;2023-01-27T02:44:43;99293.34;;;-5.70;86.48
69980;BME280;57318;56.232;43.944;2023-01-27T02:47:09;99296.75;;;-5.68;86.86
69980;BME280;57318;56.232;43.944;2023-01-27T02:49:34;99287.28;;;-5.67;86.57
69980;BME280;57318;56.232;43.944;2023-01-27T02:52:00;99295.00;;;-5.66;86.81
69980;BME280;57318;56.232;43.944;2023-01-27T02:54:26;99310.56;;;-5.67;86.72
69980;BME280;57318;56.232;43.944;2023-01-27T02:56:53;99309.66;;;-5.66;86.70
69980;BME280;57318;56.232;43.944;2023-01-27T02:59:19;99303.66;;;-5.68;86.88
69980;BME280;57318;56.232;43.944;2023-01-27T03:01:44;99301.97;;;-5.71;86.66
69980;BME280;57318;56.232;43.944;2023-01-27T03:04:10;99306.25;;;-5.68;86.66
69980;BME280;57318;56.232;43.944;2023-01-27T03:06:37;99293.28;;;-5.67;86.94
69980;BME280;57318;56.232;43.944;2023-01-27T03:09:04;99293.28;;;-5.65;87.16
69980;BME280;57318;56.232;43.944;2023-01-27T03:11:29;99295.00;;;-5.64;87.27
69980;BME280;57318;56.232;43.944;2023-01-27T03:14:15;99288.91;;;-5.63;86.96
69980;BME280;57318;56.232;43.944;2023-01-27T03:16:40;99297.56;;;-5.64;87.18
69980;BME280;57318;56.232;43.944;2023-01-27T03:19:24;99299.31;;;-5.66;86.95
69980;BME280;57318;56.232;43.944;2023-01-27T03:21:54;99285.59;;;-5.71;86.77
69980;BME280;57318;56.232;43.944;2023-01-27T03:24:21;99298.50;;;-5.68;87.12
69980;BME280;57318;56.232;43.944;2023-01-27T03:26:47;99302.78;;;-5.66;87.28
69980;BME280;57318;56.232;43.944;2023-01-27T03:29:12;99295.84;;;-5.65;87.18
69980;BME280;57318;56.232;43.944;2023-01-27T03:31:57;99302.84;;;-5.70;86.90
69980;BME280;57318;56.232;43.944;2023-01-27T03:34:22;99299.41;;;-5.72;86.83
69980;BME280;57318;56.232;43.944;2023-01-27T03:36:48;99289.91;;;-5.70;86.90
69980;BME280;57318;56.232;43.944;2023-01-27T03:39:32;99290.78;;;-5.71;86.67
69980;BME280;57318;56.232;43.944;2023-01-27T03:42:17;99299.38;;;-5.71;86.24
69980;BME280;57318;56.232;43.944;2023-01-27T03:45:01;99297.69;;;-5.72;86.63
69980;BME280;57318;56.232;43.944;2023-01-27T03:47:45;99301.97;;;-5.71;86.34
69980;BME280;57318;56.232;43.944;2023-01-27T03:50:11;99303.66;;;-5.68;86.55
69980;BME280;57318;56.232;43.944;2023-01-27T03:52:39;99306.28;;;-5.70;85.92
69980;BME280;57318;56.232;43.944;2023-01-27T03:55:05;99297.66;;;-5.69;86.18
69980;BME280;57318;56.232;43.944;2023-01-27T03:57:36;99302.81;;;-5.67;86.20
69980;BME280;57318;56.232;43.944;2023-01-27T04:00:03;99300.22;;;-5.67;86.30
69980;BME280;57318;56.232;43.944;2023-01-27T04:02:32;99307.13;;;-5.69;86.17
69980;BME280;57318;56.232;43.944;2023-01-27T04:05:16;99295.09;;;-5.70;86.06
69980;BME280;57318;56.232;43.944;2023-01-27T04:08:00;99296.78;;;-5.69;86.09
69980;BME280;57318;56.232;43.944;2023-01-27T04:10:26;99310.66;;;-5.73;85.97
69980;BME280;57318;56.232;43.944;2023-01-27T04:12:51;99308.94;;;-5.74;86.36
69980;BME280;57318;56.232;43.944;2023-01-27T04:15:17;99300.34;;;-5.75;86.56
69980;BME280;57318;56.232;43.944;2023-01-27T04:17:43;99305.50;;;-5.75;86.48
69980;BME280;57318;56.232;43.944;2023-01-27T04:20:09;99313.25;;;-5.73;86.82
69980;BME280;57318;56.232;43.944;2023-01-27T04:22:35;99324.44;;;-5.73;86.87
69980;BME280;57318;56.232;43.944;2023-01-27T04:25:01;99309.75;;;-5.72;86.82
69980;BME280;57318;56.232;43.944;2023-01-27T04:27:26;99312.34;;;-5.71;86.64
69980;BME280;57318;56.232;43.944;2023-01-27T04:29:52;99316.66;;;-5.71;86.76
69980;BME280;57318;56.232;43.944;2023-01-27T04:32:18;99311.47;;;-5.71;86.37
69980;BME280;57318;56.232;43.944;2023-01-27T04:34:44;99313.19;;;-5.69;86.82
69980;BME280;57318;56.232;43.944;2023-01-27T04:37:09;99312.34;;;-5.72;86.31
69980;BME280;57318;56.232;43.944;2023-01-27T04:39:35;99304.53;;;-5.69;86.41
69980;BME280;57318;56.232;43.944;2023-01-27T04:42:01;99305.44;;;-5.70;86.33
69980;BME280;57318;56.232;43.944;2023-01-27T04:44:26;99305.44;;;-5.70;86.34
69980;BME280;57318;56.232;43.944;2023-01-27T04:46:52;99301.09;;;-5.70;86.29
69980;BME280;57318;56.232;43.944;2023-01-27T04:49:21;99299.38;;;-5.69;86.17
69980;BME280;57318;56.232;43.944;2023-01-27T04:51:46;99304.59;;;-5.72;86.50
69980;BME280;57318;56.232;43.944;2023-01-27T04:54:12;99295.16;;;-5.75;86.16
69980;BME280;57318;56.232;43.944;2023-01-27T04:56:40;99316.72;;;-5.74;86.25
69980;BME280;57318;56.232;43.944;2023-01-27T04:59:11;99308.06;;;-5.73;86.34
69980;BME280;57318;56.232;43.944;2023-01-27T05:01:40;99311.50;;;-5.73;86.57
69980;BME280;57318;56.232;43.944;2023-01-27T05:04:06;99306.34;;;-5.74;86.41
69980;BME280;57318;56.232;43.944;2023-01-27T05:06:32;99311.53;;;-5.74;86.60
69980;BME280;57318;56.232;43.944;2023-01-27T05:08:58;99305.50;;;-5.73;86.56
69980;BME280;57318;56.232;43.944;2023-01-27T05:11:24;99317.56;;;-5.75;86.42
69980;BME280;57318;56.232;43.944;2023-01-27T05:13:52;99309.84;;;-5.78;86.49
69980;BME280;57318;56.232;43.944;2023-01-27T05:16:22;99311.56;;;-5.76;86.04
69980;BME280;57318;56.232;43.944;2023-01-27T05:18:49;99317.56;;;-5.75;86.65
69980;BME280;57318;56.232;43.944;2023-01-27T05:21:18;99323.66;;;-5.76;86.30
69980;BME280;57318;56.232;43.944;2023-01-27T05:23:44;99323.66;;;-5.76;86.08
69980;BME280;57318;56.232;43.944;2023-01-27T05:26:24;99325.38;;;-5.78;86.33
69980;BME280;57318;56.232;43.944;2023-01-27T05:28:51;99334.00;;;-5.76;86.35
69980;BME280;57318;56.232;43.944;2023-01-27T05:31:19;99322.81;;;-5.78;85.89
69980;BME280;57318;56.232;43.944;2023-01-27T05:33:46;99317.63;;;-5.78;86.59
69980;BME280;57318;56.232;43.944;2023-01-27T05:36:14;99343.38;;;-5.71;86.41
69980;BME280;57318;56.232;43.944;2023-01-27T05:38:40;99357.22;;;-5.72;86.37
69980;BME280;57318;56.232;43.944;2023-01-27T05:41:08;99339.13;;;-5.73;85.87
69980;BME280;57318;56.232;43.944;2023-01-27T05:43:35;99334.84;;;-5.76;86.06
69980;BME280;57318;56.232;43.944;2023-01-27T05:46:10;99352.94;;;-5.74;86.06
69980;BME280;57318;56.232;43.944;2023-01-27T05:48:39;99351.19;;;-5.74;86.23
69980;BME280;57318;56.232;43.944;2023-01-27T05:51:05;99349.50;;;-5.73;86.12
69980;BME280;57318;56.232;43.944;2023-01-27T05:53:31;99354.72;;;-5.76;86.03
69980;BME280;57318;56.232;43.944;2023-01-27T05:55:57;99345.19;;;-5.74;86.05
69980;BME280;57318;56.232;43.944;2023-01-27T05:58:23;99349.56;;;-5.78;85.97
69980;BME280;57318;56.232;43.944;2023-01-27T06:00:49;99343.47;;;-5.77;86.29
69980;BME280;57318;56.232;43.944;2023-01-27T06:03:15;99354.72;;;-5.76;86.27
69980;BME280;57318;56.232;43.944;2023-01-27T06:05:55;99352.16;;;-5.80;85.95
69980;BME280;57318;56.232;43.944;2023-01-27T06:08:25;99371.09;;;-5.76;86.37
69980;BME280;57318;56.232;43.944;2023-01-27T06:10:52;99351.22;;;-5.75;86.32
69980;BME280;57318;56.232;43.944;2023-01-27T06:13:21;99360.66;;;-5.71;86.44
69980;BME280;57318;56.232;43.944;2023-01-27T06:15:48;99366.59;;;-5.65;86.14
69980;BME280;57318;56.232;43.944;2023-01-27T06:18:14;99365.69;;;-5.60;85.92
69980;BME280;57318;56.232;43.944;2023-01-27T06:20:40;99370.94;;;-5.67;85.80
69980;BME280;57318;56.232;43.944;2023-01-27T06:23:08;99371.78;;;-5.66;86.27
69980;BME280;57318;56.232;43.944;2023-01-27T06:25:36;99351.09;;;-5.66;86.06
69980;BME280;57318;56.232;43.944;2023-01-27T06:28:02;99360.50;;;-5.60;86.17
69980;BME280;57318;56.232;43.944;2023-01-27T06:30:27;99367.34;;;-5.56;86.29
69980;BME280;57318;56.232;43.944;2023-01-27T06:32:54;99369.06;;;-5.57;85.89
69980;BME280;57318;56.232;43.944;2023-01-27T06:35:20;99372.44;;;-5.52;85.67
69980;BME280;57318;56.232;43.944;2023-01-27T06:37:45;99374.09;;;-5.48;85.93
69980;BME280;57318;56.232;43.944;2023-01-27T06:40:11;99379.22;;;-5.45;85.99
69980;BME280;57318;56.232;43.944;2023-01-27T06:42:41;99378.38;;;-5.44;85.88
69980;BME280;57318;56.232;43.944;2023-01-27T06:45:08;99379.31;;;-5.49;85.47
69980;BME280;57318;56.232;43.944;2023-01-27T06:47:34;99370.72;;;-5.51;85.78
69980;BME280;57318;56.232;43.944;2023-01-27T06:49:59;99368.97;;;-5.51;85.63
69980;BME280;57318;56.232;43.944;2023-01-27T06:52:25;99367.25;;;-5.52;86.00
69980;BME280;57318;56.232;43.944;2023-01-27T06:54:50;99372.34;;;-5.46;86.01
69980;BME280;57318;56.232;43.944;2023-01-27T06:57:16;99371.38;;;-5.38;85.90
69980;BME280;57318;56.232;43.944;2023-01-27T06:59:42;99375.66;;;-5.36;85.74
69980;BME280;57318;56.232;43.944;2023-01-27T07:02:11;99380.72;;;-5.30;85.83
69980;BME280;57318;56.232;43.944;2023-01-27T07:04:38;99388.59;;;-5.36;85.56
69980;BME280;57318;56.232;43.944;2023-01-27T07:07:03;99387.69;;;-5.35;85.68
69980;BME280;57318;56.232;43.944;2023-01-27T07:09:29;99379.03;;;-5.32;85.77
69980;BME280;57318;56.232;43.944;2023-01-27T07:11:54;99378.16;;;-5.31;85.59
69980;BME280;57318;56.232;43.944;2023-01-27T07:14:20;99376.41;;;-5.29;85.56
69980;BME280;57318;56.232;43.944;2023-01-27T07:16:45;99374.72;;;-5.33;85.63
69980;BME280;57318;56.232;43.944;2023-01-27T07:19:11;99379.03;;;-5.32;85.70
69980;BME280;57318;56.232;43.944;2023-01-27T07:21:37;99384.19;;;-5.31;85.76
69980;BME280;57318;56.232;43.944;2023-01-27T07:24:03;99384.19;;;-5.31;85.96
69980;BME280;57318;56.232;43.944;2023-01-27T07:26:29;99382.44;;;-5.29;85.65
69980;BME280;57318;56.232;43.944;2023-01-27T07:28:55;99397.03;;;-5.23;85.77
69980;BME280;57318;56.232;43.944;2023-01-27T07:31:21;99384.09;;;-5.24;85.63
69980;BME280;57318;56.232;43.944;2023-01-27T07:33:47;99383.22;;;-5.25;85.54
69980;BME280;57318;56.232;43.944;2023-01-27T07:36:12;99386.63;;;-5.21;85.54
69980;BME280;57318;56.232;43.944;2023-01-27T07:38:38;99384.78;;;-5.15;85.65
69980;BME280;57318;56.232;43.944;2023-01-27T07:41:04;99388.22;;;-5.14;85.32
69980;BME280;57318;56.232;43.944;2023-01-27T07:43:31;99394.28;;;-5.14;85.42
69980;BME280;57318;56.232;43.944;2023-01-27T07:45:57;99398.56;;;-5.13;85.49
69980;BME280;57318;56.232;43.944;2023-01-27T07:48:23;99404.56;;;-5.09;85.33
69980;BME280;57318;56.232;43.944;2023-01-27T07:50:48;99389.06;;;-5.12;84.91
69980;BME280;57318;56.232;43.944;2023-01-27T07:53:14;99394.22;;;-5.11;84.98
69980;BME280;57318;56.232;43.944;2023-01-27T07:55:40;99396.72;;;-5.04;84.87
69980;BME280;57318;56.232;43.944;2023-01-27T07:58:06;99400.09;;;-5.01;84.69
69980;BME280;57318;56.232;43.944;2023-01-27T08:00:32;99398.25;;;-4.94;84.68
69980;BME280;57318;56.232;43.944;2023-01-27T08:02:58;99393.84;;;-4.91;84.50
69980;BME280;57318;56.232;43.944;2023-01-27T08:05:24;99400.88;;;-4.96;83.87
69980;BME280;57318;56.232;43.944;2023-01-27T08:07:51;99404.34;;;-4.97;84.44
69980;BME280;57318;56.232;43.944;2023-01-27T08:10:17;99404.34;;;-4.98;84.56
69980;BME280;57318;56.232;43.944;2023-01-27T08:12:44;99394.06;;;-5.01;84.83
69980;BME280;57318;56.232;43.944;2023-01-27T08:15:10;99403.59;;;-5.03;84.95
69980;BME280;57318;56.232;43.944;2023-01-27T08:17:36;99398.44;;;-5.05;84.63
69980;BME280;57318;56.232;43.944;2023-01-27T08:20:02;99403.72;;;-5.11;85.24
69980;BME280;57318;56.232;43.944;2023-01-27T08:22:28;99390.75;;;-5.11;85.30
69980;BME280;57318;56.232;43.944;2023-01-27T08:24:54;99390.75;;;-5.11;85.34
69980;BME280;57318;56.232;43.944;2023-01-27T08:27:20;99389.91;;;-5.12;85.21
69980;BME280;57318;56.232;43.944;2023-01-27T08:29:46;99382.16;;;-5.13;85.24
69980;BME280;57318;56.232;43.944;2023-01-27T08:32:11;99389.91;;;-5.12;85.56
69980;BME280;57318;56.232;43.944;2023-01-27T08:34:38;99373.53;;;-5.12;85.22
69980;BME280;57318;56.232;43.944;2023-01-27T08:37:04;99383.00;;;-5.13;84.96
69980;BME280;57318;56.232;43.944;2023-01-27T08:39:30;99390.06;;;-5.21;85.18
69980;BME280;57318;56.232;43.944;2023-01-27T08:41:56;99391.84;;;-5.23;85.36
69980;BME280;57318;56.232;43.944;2023-01-27T08:44:22;99384.09;;;-5.24;85.47
69980;BME280;57318;56.232;43.944;2023-01-27T08:46:49;99387.56;;;-5.26;85.37
69980;BME280;57318;56.232;43.944;2023-01-27T08:49:15;99379.75;;;-5.24;85.46
69980;BME280;57318;56.232;43.944;2023-01-27T08:51:41;99396.91;;;-5.15;85.29
69980;BME280;57318;56.232;43.944;2023-01-27T08:54:07;99385.81;;;-5.25;84.87
69980;BME280;57318;56.232;43.944;2023-01-27T08:56:33;99382.34;;;-5.24;85.23
69980;BME280;57318;56.232;43.944;2023-01-27T08:58:59;99384.97;;;-5.26;85.20
69980;BME280;57318;56.232;43.944;2023-01-27T09:01:25;99383.31;;;-5.28;84.89
69980;BME280;57318;56.232;43.944;2023-01-27T09:03:51;99397.22;;;-5.35;84.94
69980;BME280;57318;56.232;43.944;2023-01-27T09:06:17;99391.94;;;-5.29;84.94
69980;BME280;57318;56.232;43.944;2023-01-27T09:08:43;99402.34;;;-5.32;85.34
69980;BME280;57318;56.232;43.944;2023-01-27T09:11:15;99385.81;;;-5.25;85.32
69980;BME280;57318;56.232;43.944;2023-01-27T09:13:41;99394.53;;;-5.29;85.26
69980;BME280;57318;56.232;43.944;2023-01-27T09:16:08;99397.06;;;-5.26;85.11
69980;BME280;57318;56.232;43.944;2023-01-27T09:18:35;99397.06;;;-5.26;85.11
69980;BME280;57318;56.232;43.944;2023-01-27T09:21:05;99403.16;;;-5.29;84.73
69980;BME280;57318;56.232;43.944;2023-01-27T09:23:32;99385.81;;;-5.25;85.07
69980;BME280;57318;56.232;43.944;2023-01-27T09:25:58;99388.38;;;-5.23;85.03
69980;BME280;57318;56.232;43.944;2023-01-27T09:28:23;99391.78;;;-5.20;84.99
69980;BME280;57318;56.232;43.944;2023-01-27T09:30:49;99374.47;;;-5.18;84.93
69980;BME280;57318;56.232;43.944;2023-01-27T09:33:14;99377.91;;;-5.17;84.73
69980;BME280;57318;56.232;43.944;2023-01-27T09:35:47;99372.75;;;-5.19;84.28
69980;BME280;57318;56.232;43.944;2023-01-27T09:38:17;99393.53;;;-5.22;84.33
69980;BME280;57318;56.232;43.944;2023-01-27T09:51:56;99416.13;;;-5.30;84.27
69980;BME280;57318;56.232;43.944;2023-01-27T09:54:38;99377.28;;;-5.32;84.47
69980;BME280;57318;56.232;43.944;2023-01-27T10:00:19;99392.94;;;-5.39;84.83
69980;BME280;57318;56.232;43.944;2023-01-27T10:11:44;99391.31;;;-5.44;84.59
69980;BME280;57318;56.232;43.944;2023-01-27T10:19:54;99394.00;;;-5.50;84.51
69980;BME280;57318;56.232;43.944;2023-01-27T10:25:07;99400.09;;;-5.54;84.67
69980;BME280;57318;56.232;43.944;2023-01-27T10:27:45;99415.66;;;-5.55;84.95
69980;BME280;57318;56.232;43.944;2023-01-27T10:30:19;99414.81;;;-5.57;84.83
69980;BME280;57318;56.232;43.944;2023-01-27T10:32:58;99407.06;;;-5.59;84.95
69980;BME280;57318;56.232;43.944;2023-01-27T10:35:58;99406.22;;;-5.58;84.97
69980;BME280;57318;56.232;43.944;2023-01-27T10:41:09;99409.72;;;-5.62;84.87
69980;BME280;57318;56.232;43.944;2023-01-27T10:46:15;99408.94;;;-5.69;84.69
69980;BME280;57318;56.232;43.944;2023-01-27T10:49:11;99408.13;;;-5.72;84.62
69980;BME280;57318;56.232;43.944;2023-01-27T10:51:51;99423.69;;;-5.75;84.48
69980;BME280;57318;56.232;43.944;2023-01-27T10:54:31;99421.19;;;-5.82;84.19
69980;BME280;57318;56.232;43.944;2023-01-27T10:57:03;99412.63;;;-5.85;84.38
69980;BME280;57318;56.232;43.944;2023-01-27T10:59:44;99426.50;;;-5.89;84.90
69980;BME280;57318;56.232;43.944;2023-01-27T11:05:08;99410.94;;;-5.88;84.52
69980;BME280;57318;56.232;43.944;2023-01-27T11:07:49;99408.31;;;-5.85;84.93
69980;BME280;57318;56.232;43.944;2023-01-27T11:10:18;99404.84;;;-5.85;84.85
69980;BME280;57318;56.232;43.944;2023-01-27T11:12:47;99405.72;;;-5.83;84.82
69980;BME280;57318;56.232;43.944;2023-01-27T11:15:30;99426.41;;;-5.83;84.64
69980;BME280;57318;56.232;43.944;2023-01-27T11:18:03;99421.25;;;-5.85;84.60
69980;BME280;57318;56.232;43.944;2023-01-27T11:20:38;99424.75;;;-5.89;84.72
69980;BME280;57318;56.232;43.944;2023-01-27T11:23:14;99406.59;;;-5.86;84.74
69980;BME280;57318;56.232;43.944;2023-01-27T11:26:05;99415.19;;;-5.84;85.05
69980;BME280;57318;56.232;43.944;2023-01-27T11:33:59;99426.31;;;-5.78;84.63
69980;BME280;57318;56.232;43.944;2023-01-27T11:36:29;99421.09;;;-5.75;84.83
69980;BME280;57318;56.232;43.944;2023-01-27T11:38:56;99429.69;;;-5.72;84.83
69980;BME280;57318;56.232;43.944;2023-01-27T11:41:36;99426.22;;;-5.71;84.68
69980;BME280;57318;56.232;43.944;2023-01-27T11:44:06;99428.75;;;-5.66;84.62
69980;BME280;57318;56.232;43.944;2023-01-27T11:46:37;99435.63;;;-5.65;84.44
69980;BME280;57318;56.232;43.944;2023-01-27T11:49:03;99434.72;;;-5.61;84.62
69980;BME280;57318;56.232;43.944;2023-01-27T11:51:38;99437.31;;;-5.61;84.72
69980;BME280;57318;56.232;43.944;2023-01-27T11:56:35;99437.34;;;-5.64;84.59
69980;BME280;57318;56.232;43.944;2023-01-27T11:59:05;99433.88;;;-5.63;84.74
69980;BME280;57318;56.232;43.944;2023-01-27T12:05:11;99431.19;;;-5.57;84.98
69980;BME280;57318;56.232;43.944;2023-01-27T12:07:56;99437.25;;;-5.56;84.50
69980;BME280;57318;56.232;43.944;2023-01-27T12:10:34;99438.94;;;-5.55;84.89
69980;BME280;57318;56.232;43.944;2023-01-27T12:13:17;99435.50;;;-5.56;84.91
69980;BME280;57318;56.232;43.944;2023-01-27T12:16:02;99435.50;;;-5.56;84.62
69980;BME280;57318;56.232;43.944;2023-01-27T12:18:32;99440.69;;;-5.56;84.85
69980;BME280;57318;56.232;43.944;2023-01-27T12:21:02;99432.94;;;-5.57;85.03
69980;BME280;57318;56.232;43.944;2023-01-27T12:23:54;99433.84;;;-5.60;84.85
69980;BME280;57318;56.232;43.944;2023-01-27T12:26:37;99438.97;;;-5.57;84.84
69980;BME280;57318;56.232;43.944;2023-01-27T12:29:12;99433.00;;;-5.62;84.94
69980;BME280;57318;56.232;43.944;2023-01-27T12:31:48;99439.00;;;-5.60;85.04
69980;BME280;57318;56.232;43.944;2023-01-27T12:34:28;99448.53;;;-5.60;85.01
69980;BME280;57318;56.232;43.944;2023-01-27T12:36:56;99451.97;;;-5.62;85.02
69980;BME280;57318;56.232;43.944;2023-01-27T12:40:03;99447.72;;;-5.64;85.16
69980;BME280;57318;56.232;43.944;2023-01-27T12:42:43;99450.31;;;-5.64;85.29
69980;BME280;57318;56.232;43.944;2023-01-27T12:53:23;99443.22;;;-5.53;85.84
69980;BME280;57318;56.232;43.944;2023-01-27T13:01:34;99438.91;;;-5.52;85.48
69980;BME280;57318;56.232;43.944;2023-01-27T13:06:41;99433.78;;;-5.57;85.94
69980;BME280;57318;56.232;43.944;2023-01-27T13:12:33;99437.28;;;-5.58;86.23
69980;BME280;57318;56.232;43.944;2023-01-27T13:15:16;99441.56;;;-5.57;86.40
69980;BME280;57318;56.232;43.944;2023-01-27T13:17:45;99439.84;;;-5.56;86.40
69980;BME280;57318;56.232;43.944;2023-01-27T13:20:28;99446.72;;;-5.57;86.44
69980;BME280;57318;56.232;43.944;2023-01-27T13:29:24;99449.38;;;-5.60;86.63
69980;BME280;57318;56.232;43.944;2023-01-27T13:38:23;99455.41;;;-5.58;86.51
69980;BME280;57318;56.232;43.944;2023-01-27T13:40:37;99447.50;;;-5.52;86.87
69980;BME280;57318;56.232;43.944;2023-01-27T13:51:17;99459.59;;;-5.51;86.37
69980;BME280;57318;56.232;43.944;2023-01-27T13:53:45;99463.03;;;-5.52;86.39
69980;BME280;57318;56.232;43.944;2023-01-27T14:11:33;99465.59;;;-5.49;86.66
69980;BME280;57318;56.232;43.944;2023-01-27T14:14:16;99463.84;;;-5.47;86.35
69980;BME280;57318;56.232;43.944;2023-01-27T14:17:11;99471.59;;;-5.44;86.48
69980;BME280;57318;56.232;43.944;2023-01-27T14:20:17;99468.09;;;-5.43;86.61
69980;BME280;57318;56.232;43.944;2023-01-27T14:22:50;99463.81;;;-5.44;86.53
69980;BME280;57318;56.232;43.944;2023-01-27T14:28:30;99469.84;;;-5.45;86.56
69980;BME280;57318;56.232;43.944;2023-01-27T14:31:05;99471.63;;;-5.47;86.27
69980;BME280;57318;56.232;43.944;2023-01-27T14:36:31;99476.75;;;-5.44;86.50
69980;BME280;57318;56.232;43.944;2023-01-27T14:39:26;99483.63;;;-5.43;86.74
69980;BME280;57318;56.232;43.944;2023-01-27T14:45:20;99481.88;;;-5.39;86.49
69980;BME280;57318;56.232;43.944;2023-01-27T14:50:48;99498.25;;;-5.37;86.64
69980;BME280;57318;56.232;43.944;2023-01-27T15:10:32;99494.69;;;-5.28;86.72
69980;BME280;57318;56.232;43.944;2023-01-27T15:19:18;99514.53;;;-5.30;86.99
69980;BME280;57318;56.232;43.944;2023-01-27T15:27:02;99507.66;;;-5.31;86.83
69980;BME280;57318;56.232;43.944;2023-01-27T15:29:29;99503.28;;;-5.26;87.36
69980;BME280;57318;56.232;43.944;2023-01-27T15:34:42;99506.63;;;-5.21;86.97
69980;BME280;57318;56.232;43.944;2023-01-27T15:40:08;99509.19;;;-5.18;86.85
69980;BME280;57318;56.232;43.944;2023-01-27T15:45:28;99515.16;;;-5.13;86.95